Time;durP1;ratioP1;P1;durP2;ratioP2;P2;SDS_P1;SDS_P2;PMS_P1;PMS_P2;Temp;Humidity;BMP_temperature;BMP_pressure;BME280_temperature;BME280_humidity;BME280_pressure;Samples;Min_cycle;Max_cycle;Signal;HPM_P1;HPM_P2
2022/03/19 00:00:35;;;;;;;10.70;1.30;;;2.70;99.90;;;;;;4954870;29;20030;-74
2022/03/19 00:03:01;;;;;;;6.25;1.13;;;2.70;99.90;;;;;;4954793;29;20118;-74
2022/03/19 00:05:27;;;;;;;9.60;1.10;;;2.70;99.90;;;;;;4954757;29;20055;-74
2022/03/19 00:07:53;;;;;;;8.07;1.73;;;2.70;99.90;;;;;;4954597;29;20086;-73
2022/03/19 00:10:20;;;;;;;7.80;1.40;;;2.70;99.90;;;;;;4954610;29;20031;-73
2022/03/19 00:12:46;;;;;;;6.00;1.20;;;2.70;99.90;;;;;;4954619;29;20039;-73
2022/03/19 00:15:12;;;;;;;10.63;1.40;;;2.70;99.90;;;;;;4954327;29;20031;-73
2022/03/19 00:17:38;;;;;;;6.30;1.20;;;2.70;99.90;;;;;;4954744;29;20023;-73
2022/03/19 00:20:04;;;;;;;4.97;0.85;;;2.70;99.90;;;;;;4954287;29;20478;-74
2022/03/19 00:22:31;;;;;;;7.90;1.38;;;2.80;99.90;;;;;;4954664;29;20061;-73
2022/03/19 00:24:58;;;;;;;5.85;1.20;;;2.80;99.90;;;;;;4954387;29;20109;-73
2022/03/19 00:27:25;;;;;;;9.65;1.40;;;2.70;99.90;;;;;;4954275;28;20027;-73
2022/03/19 00:29:52;;;;;;;10.50;1.27;;;2.70;99.90;;;;;;4954352;29;20396;-76
2022/03/19 00:32:17;;;;;;;5.68;1.10;;;2.70;99.90;;;;;;4954418;29;20056;-76
2022/03/19 00:34:43;;;;;;;7.13;1.08;;;2.70;99.90;;;;;;4954240;29;20063;-76
2022/03/19 00:37:09;;;;;;;7.38;1.45;;;2.70;99.90;;;;;;4953888;28;20047;-76
2022/03/19 00:39:35;;;;;;;7.10;1.48;;;2.70;99.90;;;;;;4954293;29;20118;-76
2022/03/19 00:42:00;;;;;;;8.25;1.65;;;2.70;99.90;;;;;;4954049;29;20087;-76
2022/03/19 00:44:26;;;;;;;5.15;1.17;;;2.70;99.90;;;;;;4953622;28;20027;-76
2022/03/19 00:46:52;;;;;;;6.03;1.90;;;2.70;99.90;;;;;;4954317;29;20019;-76
2022/03/19 00:49:18;;;;;;;5.85;1.33;;;2.70;99.90;;;;;;4954038;29;20467;-76
2022/03/19 00:51:44;;;;;;;5.43;1.08;;;2.70;99.90;;;;;;4954237;29;20038;-76
2022/03/19 00:54:12;;;;;;;6.65;1.08;;;2.70;99.90;;;;;;4953925;29;20033;-76
2022/03/19 00:56:38;;;;;;;4.97;1.05;;;2.70;99.90;;;;;;4953840;29;20611;-76
2022/03/19 00:59:04;;;;;;;9.90;1.83;;;2.70;99.90;;;;;;4953902;29;20116;-76
2022/03/19 01:01:30;;;;;;;4.47;1.20;;;2.70;99.90;;;;;;4953957;29;20082;-76
2022/03/19 01:03:56;;;;;;;3.33;1.05;;;2.70;99.90;;;;;;4953942;29;20019;-75
2022/03/19 01:06:22;;;;;;;3.25;0.70;;;2.70;99.90;;;;;;4953862;29;20375;-76
2022/03/19 01:08:48;;;;;;;4.60;0.90;;;2.80;99.90;;;;;;4952668;29;20031;-75
2022/03/19 01:11:13;;;;;;;4.93;1.20;;;2.80;99.90;;;;;;4954286;29;20053;-74
2022/03/19 01:13:39;;;;;;;5.93;1.10;;;2.80;99.90;;;;;;4953900;29;20034;-75
2022/03/19 01:16:05;;;;;;;8.23;1.67;;;2.80;99.90;;;;;;4954022;29;20127;-73
2022/03/19 01:18:31;;;;;;;4.93;1.13;;;2.80;99.90;;;;;;4952560;29;20023;-73
2022/03/19 01:20:57;;;;;;;6.70;1.33;;;2.80;99.90;;;;;;4953743;29;20031;-73
2022/03/19 01:23:22;;;;;;;7.18;0.93;;;2.80;99.90;;;;;;4953609;29;20023;-73
2022/03/19 01:25:48;;;;;;;10.02;1.45;;;2.80;99.90;;;;;;4953940;29;20027;-73
2022/03/19 01:28:14;;;;;;;8.70;2.05;;;2.80;99.90;;;;;;4953555;29;20035;-73
2022/03/19 01:30:40;;;;;;;5.47;1.05;;;2.80;99.90;;;;;;4953755;29;20027;-73
2022/03/19 01:33:05;;;;;;;4.45;1.23;;;2.80;99.90;;;;;;4953584;29;20063;-74
2022/03/19 01:35:32;;;;;;;5.60;0.90;;;2.80;99.90;;;;;;4953492;28;20039;-73
2022/03/19 01:37:58;;;;;;;3.67;1.30;;;2.90;99.90;;;;;;4953440;28;20051;-73
2022/03/19 01:40:24;;;;;;;3.70;0.90;;;2.80;99.90;;;;;;4953494;29;20031;-74
2022/03/19 01:42:51;;;;;;;2.30;0.95;;;2.90;99.90;;;;;;4953561;29;20498;-73
2022/03/19 01:45:21;;;;;;;6.43;1.40;;;2.80;99.90;;;;;;4953621;29;20031;-73
2022/03/19 01:47:49;;;;;;;7.43;1.23;;;2.80;99.90;;;;;;4953425;29;20110;-73
2022/03/19 01:50:17;;;;;;;5.15;1.17;;;2.90;99.90;;;;;;4953342;29;20054;-73
2022/03/19 01:52:43;;;;;;;7.35;1.15;;;2.90;99.90;;;;;;4953604;29;20078;-73
2022/03/19 01:55:11;;;;;;;2.75;1.00;;;2.90;99.90;;;;;;4954510;28;20494;-73
2022/03/19 01:57:41;;;;;;;4.82;1.27;;;2.90;99.90;;;;;;4957102;29;20457;-72
2022/03/19 02:00:10;;;;;;;3.22;1.20;;;2.90;99.90;;;;;;4957215;29;20094;-72
2022/03/19 02:02:37;;;;;;;3.85;1.17;;;2.90;99.90;;;;;;4957020;29;20033;-72
2022/03/19 02:05:04;;;;;;;4.75;1.08;;;3.00;99.90;;;;;;4957028;29;20489;-72
2022/03/19 02:07:31;;;;;;;9.60;1.13;;;3.00;99.90;;;;;;4956916;29;20035;-72
2022/03/19 02:09:58;;;;;;;4.43;1.02;;;3.00;99.90;;;;;;4956864;29;20031;-72
2022/03/19 02:12:24;;;;;;;4.50;0.98;;;3.00;99.90;;;;;;4956687;29;20324;-72
2022/03/19 02:14:50;;;;;;;3.22;0.90;;;3.00;99.90;;;;;;4956755;29;20411;-72
2022/03/19 02:17:16;;;;;;;1.40;0.80;;;3.00;99.90;;;;;;4956676;29;20042;-72
2022/03/19 02:19:53;;;;;;;3.67;0.93;;;3.00;99.90;;;;;;4956835;28;20019;-72
2022/03/19 02:22:22;;;;;;;3.72;0.90;;;3.00;99.90;;;;;;4956616;29;20364;-73
2022/03/19 02:56:19;;;;;;;6.25;0.98;;;3.40;99.90;;;;;;4951495;29;20454;-72
2022/03/19 02:58:44;;;;;;;7.47;1.20;;;3.40;99.90;;;;;;4955861;29;20028;-72
2022/03/19 03:01:10;;;;;;;6.70;1.00;;;3.40;99.90;;;;;;4954716;29;20475;-72
2022/03/19 03:37:18;;;;;;;2.55;0.80;;;3.70;99.90;;;;;;5940148;23;20988;-72
2022/03/19 03:39:44;;;;;;;7.68;1.27;;;3.70;99.90;;;;;;4973224;28;20067;-72
2022/03/19 03:42:09;;;;;;;4.82;0.85;;;3.70;99.90;;;;;;4974599;28;20054;-72
2022/03/19 03:44:35;;;;;;;3.25;0.70;;;3.80;99.90;;;;;;4974257;28;20130;-72
2022/03/19 03:47:01;;;;;;;3.55;1.00;;;3.80;99.90;;;;;;4974649;28;20033;-72
2022/03/19 03:49:27;;;;;;;5.18;0.80;;;3.80;99.90;;;;;;4956338;28;20019;-72
2022/03/19 03:51:53;;;;;;;2.60;0.93;;;3.80;99.90;;;;;;4955202;29;20070;-71
2022/03/19 03:54:18;;;;;;;5.50;0.98;;;3.80;99.90;;;;;;4954844;29;20382;-71
2022/03/19 03:56:44;;;;;;;3.83;0.82;;;3.80;99.90;;;;;;4954811;29;20039;-71
2022/03/19 03:59:10;;;;;;;6.82;1.80;;;3.90;99.90;;;;;;4955178;29;20023;-71
2022/03/19 04:01:35;;;;;;;2.47;0.85;;;3.90;99.90;;;;;;4954758;29;20402;-71
2022/03/19 04:04:01;;;;;;;6.95;1.02;;;3.90;99.90;;;;;;4954968;29;20102;-71
2022/03/19 04:06:27;;;;;;;6.60;0.98;;;3.90;99.90;;;;;;4954702;29;20034;-71
2022/03/19 04:08:52;;;;;;;6.97;1.00;;;3.90;99.90;;;;;;4954400;29;20045;-71
2022/03/19 04:11:18;;;;;;;1.40;0.70;;;3.90;99.90;;;;;;4954948;29;20031;-73
2022/03/19 04:13:44;;;;;;;5.68;1.00;;;3.90;99.90;;;;;;4954381;29;20391;-71
2022/03/19 04:16:09;;;;;;;5.55;1.50;;;4.00;99.90;;;;;;4954853;29;20130;-71
2022/03/19 04:18:35;;;;;;;7.72;1.00;;;4.00;99.90;;;;;;4953668;28;20387;-71
2022/03/19 04:21:01;;;;;;;3.58;1.20;;;4.00;99.90;;;;;;4954813;29;20031;-71
2022/03/19 04:23:26;;;;;;;10.48;1.92;;;4.00;99.90;;;;;;4954462;29;20543;-71
2022/03/19 04:25:52;;;;;;;3.20;0.88;;;4.00;99.90;;;;;;4954271;29;20035;-70
2022/03/19 04:28:18;;;;;;;3.55;0.90;;;4.00;99.90;;;;;;4954578;29;20042;-71
2022/03/19 04:30:43;;;;;;;5.15;1.35;;;4.00;99.90;;;;;;4954524;29;20356;-71
2022/03/19 04:33:09;;;;;;;3.65;0.90;;;4.10;99.90;;;;;;4954337;29;20446;-71
2022/03/19 04:38:22;;;;;;;2.88;0.90;;;4.00;99.90;;;;;;4953993;28;20058;-73
2022/03/19 04:40:49;;;;;;;4.85;1.00;;;4.10;99.90;;;;;;4954084;28;20035;-72
2022/03/19 04:43:15;;;;;;;6.03;1.08;;;4.00;99.90;;;;;;4954118;28;20111;-71
2022/03/19 04:45:42;;;;;;;5.78;1.48;;;4.00;99.90;;;;;;4954145;29;20110;-72
2022/03/19 04:48:08;;;;;;;5.90;1.35;;;4.00;99.90;;;;;;4954086;28;20019;-72
2022/03/19 04:50:42;;;;;;;2.15;0.82;;;4.10;99.90;;;;;;4954139;28;20471;-72
2022/03/19 04:53:09;;;;;;;4.75;1.20;;;4.00;99.90;;;;;;4954094;28;20118;-71
2022/03/19 04:55:37;;;;;;;6.72;1.25;;;4.10;99.90;;;;;;4954335;28;20031;-71
2022/03/19 04:58:04;;;;;;;1.52;0.80;;;4.10;99.90;;;;;;4954296;28;20023;-72
2022/03/19 05:00:29;;;;;;;1.65;0.70;;;4.20;99.90;;;;;;4954093;28;20028;-72
2022/03/19 05:02:55;;;;;;;3.47;0.80;;;4.20;99.90;;;;;;4953889;29;20085;-72
2022/03/19 05:05:24;;;;;;;2.72;0.70;;;4.30;99.90;;;;;;4954029;28;20027;-71
2022/03/19 05:07:54;;;;;;;2.38;0.73;;;4.30;99.30;;;;;;4952516;29;20031;-71
2022/03/19 05:13:05;;;;;;;5.78;1.13;;;4.50;98.40;;;;;;4954269;29;20026;-71
2022/03/19 05:15:31;;;;;;;2.58;0.80;;;4.50;97.80;;;;;;4953841;29;20027;-73
2022/03/19 05:17:56;;;;;;;3.95;0.80;;;4.50;96.90;;;;;;4953670;28;20106;-72
2022/03/19 05:20:22;;;;;;;1.90;0.80;;;4.60;96.50;;;;;;4953747;29;20034;-72
2022/03/19 05:22:48;;;;;;;3.00;1.08;;;4.70;96.50;;;;;;4953850;29;20023;-71
2022/03/19 05:25:15;;;;;;;7.13;1.10;;;4.70;95.90;;;;;;4953788;28;20027;-71
2022/03/19 05:27:40;;;;;;;5.05;0.70;;;4.80;95.10;;;;;;4952700;29;20046;-72
2022/03/19 05:30:07;;;;;;;5.25;0.77;;;4.80;94.40;;;;;;4954892;28;20474;-72
2022/03/19 05:32:33;;;;;;;1.33;0.60;;;4.90;94.00;;;;;;4957599;28;20033;-67
2022/03/19 05:35:01;;;;;;;2.35;0.85;;;4.90;94.40;;;;;;4957176;28;20027;-68
2022/03/19 05:37:27;;;;;;;3.67;1.10;;;4.90;93.90;;;;;;4957282;28;20065;-69
2022/03/19 05:39:55;;;;;;;1.02;0.70;;;5.00;94.10;;;;;;4957333;28;20015;-69
2022/03/19 05:42:24;;;;;;;1.23;0.63;;;6.20;99.90;;;;;;4957729;29;20086;-68
2022/03/19 05:44:50;;;;;;;4.05;0.70;;;6.30;93.60;;;;;;4957776;28;20027;-71
2022/03/19 05:47:16;;;;;;;11.63;6.55;;;6.00;90.50;;;;;;4957399;28;20526;-69
2022/03/19 05:49:42;;;;;;;81.88;49.38;;;5.80;90.40;;;;;;4974536;28;20031;-69
2022/03/19 05:52:08;;;;;;;17.35;15.38;;;5.60;90.40;;;;;;4976124;28;20019;-69
2022/03/19 05:54:34;;;;;;;10.18;7.75;;;5.50;89.70;;;;;;4963708;28;20031;-68
2022/03/19 05:56:59;;;;;;;8.32;1.85;;;5.50;88.90;;;;;;4956452;28;20146;-68
2022/03/19 05:59:25;;;;;;;4.00;1.95;;;5.40;87.70;;;;;;4969312;28;20034;-67
2022/03/19 06:01:51;;;;;;;2.00;1.10;;;5.40;88.20;;;;;;4975610;28;20037;-67
2022/03/19 06:04:16;;;;;;;2.50;1.60;;;5.40;88.10;;;;;;4958864;28;20053;-67
2022/03/19 06:06:42;;;;;;;2.65;0.60;;;5.40;88.10;;;;;;4966518;28;20035;-67
2022/03/19 06:09:08;;;;;;;3.95;1.00;;;5.40;86.70;;;;;;4970027;28;20033;-67
2022/03/19 06:11:34;;;;;;;1.08;1.02;;;5.40;86.30;;;;;;4974885;28;20031;-70
2022/03/19 06:14:00;;;;;;;0.98;0.60;;;5.40;86.20;;;;;;4964797;28;20081;-68
2022/03/19 06:16:26;;;;;;;2.35;0.60;;;5.40;86.30;;;;;;4973368;28;20041;-68
2022/03/19 06:18:52;;;;;;;2.05;0.90;;;5.40;85.70;;;;;;4975924;28;20459;-68
2022/03/19 06:21:25;;;;;;;1.48;0.80;;;5.40;85.10;;;;;;4976100;28;20466;-68
2022/03/19 06:23:51;;;;;;;0.82;0.52;;;5.40;84.70;;;;;;4974761;28;20125;-68
2022/03/19 06:26:18;;;;;;;2.25;0.73;;;5.40;84.70;;;;;;4976120;28;20031;-67
2022/03/19 06:28:44;;;;;;;1.13;0.60;;;5.40;84.20;;;;;;4959430;28;20492;-67
2022/03/19 06:31:10;;;;;;;1.25;0.80;;;5.50;83.60;;;;;;4956740;28;20039;-69
2022/03/19 06:33:41;;;;;;;3.47;1.15;;;5.50;83.40;;;;;;4956595;29;20046;-67
2022/03/19 06:38:52;;;;;;;3.00;0.50;;;5.60;81.60;;;;;;4955750;28;20050;-67
2022/03/19 06:41:18;;;;;;;1.38;0.75;;;5.60;82.00;;;;;;4955425;28;20023;-67
2022/03/19 06:43:44;;;;;;;3.30;0.80;;;5.60;82.20;;;;;;4956077;28;20537;-67
2022/03/19 06:46:10;;;;;;;3.28;0.70;;;5.60;82.00;;;;;;4956507;28;20155;-67
2022/03/19 06:48:35;;;;;;;4.60;0.90;;;5.60;80.90;;;;;;4956188;29;20058;-67
2022/03/19 06:51:01;;;;;;;3.50;0.70;;;5.60;81.10;;;;;;4956050;28;20027;-67
2022/03/19 06:53:27;;;;;;;1.27;0.82;;;5.70;81.00;;;;;;4956369;29;20039;-67
2022/03/19 06:55:53;;;;;;;2.15;0.70;;;5.70;81.20;;;;;;4956172;28;20091;-67
2022/03/19 06:58:21;;;;;;;3.00;0.60;;;5.70;79.90;;;;;;4955923;28;20023;-67
2022/03/19 07:00:47;;;;;;;1.35;0.63;;;5.70;79.70;;;;;;4959081;28;20053;-67
2022/03/19 07:03:13;;;;;;;3.22;0.75;;;5.70;79.10;;;;;;4975408;28;20033;-67
2022/03/19 07:05:38;;;;;;;2.90;0.80;;;5.80;80.20;;;;;;4975223;28;20105;-68
2022/03/19 07:08:08;;;;;;;1.52;0.50;;;5.80;81.00;;;;;;4975300;28;20466;-69
2022/03/19 07:10:34;;;;;;;2.53;0.65;;;5.80;80.10;;;;;;4975162;28;20015;-72
2022/03/19 07:13:00;;;;;;;1.63;0.70;;;5.80;80.00;;;;;;4975249;28;20086;-73
2022/03/19 07:15:28;;;;;;;2.10;0.65;;;5.80;80.10;;;;;;4975278;28;20513;-69
2022/03/19 07:17:55;;;;;;;0.82;0.50;;;6.10;86.90;;;;;;4975111;28;20030;-68
2022/03/19 07:20:21;;;;;;;2.30;0.65;;;6.50;91.80;;;;;;4974858;28;20102;-68
2022/03/19 07:22:57;;;;;;;2.15;0.70;;;6.40;82.90;;;;;;4974851;28;20105;-68
2022/03/19 07:25:34;;;;;;;1.27;0.70;;;6.30;81.30;;;;;;4974852;28;20521;-68
2022/03/19 07:28:09;;;;;;;1.88;0.70;;;6.30;79.60;;;;;;4974783;28;20118;-67
2022/03/19 07:30:35;;;;;;;1.38;0.63;;;6.30;79.00;;;;;;4974553;28;20026;-67
2022/03/19 07:33:02;;;;;;;1.08;0.70;;;6.30;79.00;;;;;;4974690;28;20029;-68
2022/03/19 07:35:28;;;;;;;1.13;0.63;;;6.40;79.20;;;;;;4974387;28;20023;-67
2022/03/19 07:37:54;;;;;;;4.22;1.08;;;6.40;78.80;;;;;;4974294;28;20058;-67
2022/03/19 07:43:12;;;;;;;1.23;0.82;;;6.50;78.50;;;;;;4955752;28;20054;-68
2022/03/19 07:45:40;;;;;;;3.35;0.75;;;6.70;78.00;;;;;;4972817;28;20030;-67
2022/03/19 07:48:06;;;;;;;2.60;0.70;;;6.70;78.10;;;;;;4974097;28;20439;-68
2022/03/19 07:50:32;;;;;;;4.80;0.65;;;6.70;78.00;;;;;;4967434;28;20031;-68
2022/03/19 07:52:59;;;;;;;1.65;0.73;;;6.80;78.40;;;;;;4974030;28;20378;-67
2022/03/19 07:55:25;;;;;;;3.22;0.73;;;6.80;78.20;;;;;;4974410;28;20045;-67
2022/03/19 07:57:53;;;;;;;1.88;0.60;;;6.90;77.80;;;;;;4974097;28;20031;-67
2022/03/19 08:00:19;;;;;;;0.70;0.47;;;6.90;78.30;;;;;;4974054;28;20023;-68
2022/03/19 08:02:46;;;;;;;3.17;0.60;;;6.90;78.70;;;;;;4974177;28;20051;-68
2022/03/19 08:05:12;;;;;;;1.45;0.90;;;6.90;78.70;;;;;;4974047;28;20029;-68
2022/03/19 08:07:39;;;;;;;2.42;0.93;;;7.00;78.70;;;;;;4973915;28;20035;-68
2022/03/19 08:10:06;;;;;;;2.28;0.52;;;7.00;78.40;;;;;;4973732;28;20023;-66
2022/03/19 08:12:33;;;;;;;3.25;0.80;;;7.00;79.60;;;;;;4974357;28;20417;-68
2022/03/19 08:15:01;;;;;;;6.63;0.80;;;7.20;79.90;;;;;;4973611;28;20035;-68
2022/03/19 08:17:27;;;;;;;2.65;0.70;;;7.20;79.30;;;;;;4973777;28;20561;-68
2022/03/19 08:19:55;;;;;;;2.28;0.85;;;7.20;79.10;;;;;;4973241;28;20175;-69
2022/03/19 08:22:21;;;;;;;5.03;0.70;;;7.30;78.80;;;;;;4973628;28;20055;-69
2022/03/19 08:24:46;;;;;;;1.75;0.63;;;7.40;79.30;;;;;;4973413;28;20023;-67
2022/03/19 08:27:12;;;;;;;2.78;0.80;;;7.40;78.00;;;;;;4973546;28;20102;-65
2022/03/19 08:29:38;;;;;;;2.90;0.75;;;7.50;77.90;;;;;;4973510;28;20470;-67
2022/03/19 08:32:04;;;;;;;2.65;0.85;;;7.50;78.20;;;;;;4973297;28;20054;-75
2022/03/19 08:34:30;;;;;;;4.63;0.75;;;7.50;78.00;;;;;;4973170;28;20035;-75
2022/03/19 08:36:55;;;;;;;1.45;0.68;;;7.70;90.50;;;;;;4973345;28;20042;-66
2022/03/19 08:42:06;;;;;;;2.88;0.75;;;7.90;78.50;;;;;;4973470;28;20050;-67
2022/03/19 08:44:31;;;;;;;2.72;0.60;;;7.90;77.80;;;;;;4971861;28;20023;-70
2022/03/19 08:46:57;;;;;;;2.85;0.68;;;8.10;87.10;;;;;;4973433;28;20023;-69
2022/03/19 08:49:23;;;;;;;2.22;0.88;;;8.30;81.20;;;;;;4973179;28;20027;-69
2022/03/19 08:51:49;;;;;;;6.50;0.77;;;8.30;77.90;;;;;;4973183;28;20031;-68
2022/03/19 08:54:17;;;;;;;3.78;1.00;;;8.20;77.40;;;;;;4973057;28;20382;-69
2022/03/19 08:56:44;;;;;;;1.80;0.70;;;8.20;77.50;;;;;;4973389;28;20121;-68
2022/03/19 08:59:10;;;;;;;8.60;0.80;;;8.20;77.40;;;;;;4973073;28;20372;-67
2022/03/19 09:01:40;;;;;;;4.05;0.55;;;8.10;78.20;;;;;;4973357;28;20057;-67
2022/03/19 09:04:07;;;;;;;0.82;0.50;;;8.00;78.30;;;;;;4973114;28;20054;-67
2022/03/19 09:06:33;;;;;;;5.43;0.75;;;8.00;79.20;;;;;;4973179;28;20066;-66
2022/03/19 09:09:02;;;;;;;5.72;0.80;;;7.90;79.20;;;;;;4973013;28;20097;-67
2022/03/19 09:11:28;;;;;;;2.15;0.70;;;7.90;79.80;;;;;;4971871;28;20110;-67
2022/03/19 09:13:54;;;;;;;0.52;0.50;;;7.90;80.20;;;;;;4977685;28;20026;-67
2022/03/19 09:16:20;;;;;;;4.35;0.70;;;7.90;80.50;;;;;;4987036;28;20062;-66
2022/03/19 09:18:46;;;;;;;3.08;0.80;;;7.90;81.00;;;;;;4972857;28;20458;-66
2022/03/19 09:21:12;;;;;;;4.00;1.10;;;7.90;81.40;;;;;;4972824;28;20030;-67
2022/03/19 09:23:38;;;;;;;2.55;0.65;;;7.80;81.80;;;;;;4973130;28;20025;-66
2022/03/19 09:26:04;;;;;;;2.15;0.52;;;7.80;82.20;;;;;;4973103;28;20049;-66
2022/03/19 09:28:30;;;;;;;2.08;0.70;;;7.80;82.50;;;;;;4973164;28;20459;-66
2022/03/19 09:30:55;;;;;;;2.67;0.73;;;7.80;82.70;;;;;;4972943;28;20058;-66
2022/03/19 09:33:22;;;;;;;4.18;0.70;;;7.80;82.70;;;;;;4972836;28;20061;-66
2022/03/19 09:35:48;;;;;;;4.43;0.90;;;7.80;83.20;;;;;;4972914;28;20027;-66
2022/03/19 09:38:15;;;;;;;1.85;0.65;;;7.80;83.60;;;;;;4972569;28;20395;-66
2022/03/19 09:40:41;;;;;;;0.60;0.60;;;7.80;83.90;;;;;;4972805;28;20110;-66
2022/03/19 09:43:07;;;;;;;1.00;0.80;;;8.40;99.90;;;;;;4973046;28;20034;-65
2022/03/19 09:45:34;;;;;;;1.10;0.43;;;8.80;99.90;;;;;;4973098;28;20038;-65
2022/03/19 09:48:01;;;;;;;1.23;0.52;;;9.20;89.20;;;;;;4972653;28;20437;-67
2022/03/19 09:50:28;;;;;;;2.95;0.63;;;9.00;85.50;;;;;;4972949;28;20114;-66
2022/03/19 09:52:57;;;;;;;4.70;0.68;;;8.70;84.00;;;;;;4972886;28;20030;-66
2022/03/19 09:55:26;;;;;;;3.47;0.70;;;8.60;84.70;;;;;;4972581;28;20030;-66
2022/03/19 09:57:54;;;;;;;2.55;0.60;;;8.50;84.70;;;;;;4972435;28;20170;-67
2022/03/19 10:00:22;;;;;;;2.70;0.80;;;8.50;85.10;;;;;;4972700;28;20105;-67
2022/03/19 10:02:59;;;;;;;3.72;0.63;;;8.40;85.30;;;;;;4972582;28;20489;-67
2022/03/19 10:10:59;;;;;;;4.80;0.70;;;8.50;85.40;;;;;;4972383;28;20502;-67
2022/03/19 10:13:26;;;;;;;2.95;0.85;;;8.50;85.50;;;;;;4972697;28;20023;-67
2022/03/19 10:15:53;;;;;;;1.95;1.00;;;8.60;85.30;;;;;;4973015;28;20097;-67
2022/03/19 10:18:25;;;;;;;4.03;0.77;;;8.60;85.70;;;;;;4976281;28;20110;-67
2022/03/19 10:20:51;;;;;;;3.70;0.77;;;8.60;85.90;;;;;;4976121;28;20390;-67
2022/03/19 10:23:28;;;;;;;1.58;0.90;;;8.60;85.80;;;;;;4976037;28;20030;-67
2022/03/19 10:25:54;;;;;;;2.30;0.95;;;8.60;86.20;;;;;;4975860;28;20378;-67
2022/03/19 10:28:28;;;;;;;3.45;0.60;;;8.70;86.70;;;;;;4975735;28;20037;-69
2022/03/19 10:30:54;;;;;;;4.50;0.70;;;8.70;86.70;;;;;;4975932;28;20180;-68
2022/03/19 10:33:27;;;;;;;3.75;0.90;;;8.70;86.80;;;;;;4976314;28;20549;-69
2022/03/19 10:36:13;;;;;;;2.58;0.82;;;8.80;87.00;;;;;;4975669;28;20026;-69
2022/03/19 10:38:43;;;;;;;1.38;0.70;;;8.80;87.30;;;;;;4975409;28;20051;-70
2022/03/19 10:41:10;;;;;;;3.42;0.93;;;8.80;87.30;;;;;;4975824;28;20105;-69
2022/03/19 10:43:35;;;;;;;2.63;0.80;;;8.90;87.80;;;;;;4976001;28;20398;-69
2022/03/19 10:46:03;;;;;;;2.72;0.73;;;8.90;88.10;;;;;;4975315;28;20030;-69
2022/03/19 10:48:30;;;;;;;2.58;0.90;;;9.00;88.00;;;;;;4975877;28;20030;-69
2022/03/19 10:51:01;;;;;;;5.15;0.80;;;9.00;88.50;;;;;;4975345;28;20493;-69
2022/03/19 10:53:27;;;;;;;4.18;0.70;;;9.00;88.20;;;;;;4975865;28;20062;-69
2022/03/19 10:55:53;;;;;;;5.88;1.08;;;9.00;88.80;;;;;;4975207;28;20117;-69
2022/03/19 10:58:19;;;;;;;1.58;0.45;;;9.00;88.50;;;;;;4975478;28;20042;-69
2022/03/19 11:00:50;;;;;;;4.57;1.00;;;9.10;88.70;;;;;;4975578;28;20081;-69
2022/03/19 11:03:25;;;;;;;4.20;0.70;;;9.10;88.90;;;;;;4975278;28;20524;-69
2022/03/19 11:06:05;;;;;;;1.67;0.60;;;9.10;89.30;;;;;;4975229;28;20018;-69
2022/03/19 11:08:38;;;;;;;1.95;0.90;;;9.10;89.70;;;;;;4975242;28;20034;-69
2022/03/19 11:11:22;;;;;;;3.63;1.75;;;9.10;89.60;;;;;;4974975;28;20089;-69
2022/03/19 11:13:49;;;;;;;3.90;1.42;;;9.10;89.90;;;;;;4975421;28;20441;-70
2022/03/19 11:16:16;;;;;;;2.90;0.88;;;9.10;90.00;;;;;;4974846;28;20501;-70
2022/03/19 11:18:43;;;;;;;3.35;1.13;;;9.20;90.00;;;;;;4975297;28;20042;-70
2022/03/19 11:21:09;;;;;;;3.88;0.82;;;9.20;90.20;;;;;;4973542;28;20393;-70
2022/03/19 11:23:50;;;;;;;6.00;0.80;;;9.20;90.00;;;;;;4975056;28;20031;-70
2022/03/19 11:26:22;;;;;;;6.97;1.98;;;9.20;90.00;;;;;;4973463;28;20065;-70
2022/03/19 11:28:49;;;;;;;3.15;0.90;;;9.20;90.30;;;;;;4974310;28;20067;-70
2022/03/19 11:31:21;;;;;;;13.00;2.92;;;9.20;90.40;;;;;;4974577;28;20058;-69
2022/03/19 11:33:47;;;;;;;5.20;1.23;;;9.20;90.70;;;;;;4974905;28;20486;-69
2022/03/19 11:36:13;;;;;;;3.90;0.90;;;9.30;91.40;;;;;;4974341;28;20194;-69
2022/03/19 11:38:52;;;;;;;15.63;3.10;;;9.30;91.20;;;;;;4973081;28;20410;-67
2022/03/19 11:41:22;;;;;;;2.72;0.95;;;9.30;91.90;;;;;;4974318;28;20161;-67
2022/03/19 11:43:50;;;;;;;5.57;1.38;;;9.30;91.70;;;;;;4964144;28;20530;-67
2022/03/19 11:46:17;;;;;;;1.95;0.95;;;9.30;92.30;;;;;;4960404;28;20023;-67
2022/03/19 11:48:52;;;;;;;4.25;0.90;;;9.30;92.10;;;;;;4971332;28;20030;-67
2022/03/19 11:51:23;;;;;;;5.97;1.10;;;9.30;92.40;;;;;;4968534;28;20026;-67
2022/03/19 11:54:12;;;;;;;6.40;1.15;;;9.30;92.80;;;;;;4968455;28;20486;-67
2022/03/19 11:56:49;;;;;;;6.60;1.00;;;9.30;93.20;;;;;;4971378;28;20510;-67
2022/03/19 11:59:24;;;;;;;4.93;1.10;;;9.30;93.40;;;;;;4959753;28;20034;-69
2022/03/19 12:01:55;;;;;;;6.10;1.10;;;9.30;93.90;;;;;;4973305;28;20407;-68
2022/03/19 12:04:22;;;;;;;4.03;1.10;;;9.30;94.10;;;;;;4957130;28;20027;-68
2022/03/19 12:06:58;;;;;;;2.85;0.90;;;9.40;94.60;;;;;;4954768;28;20038;-68
2022/03/19 12:09:39;;;;;;;2.70;0.90;;;9.40;94.80;;;;;;4968853;28;20539;-68
2022/03/19 12:12:18;;;;;;;3.83;1.23;;;9.40;95.10;;;;;;4968819;28;20018;-70
2022/03/19 12:14:45;;;;;;;4.80;1.20;;;9.50;95.20;;;;;;4973669;28;20042;-69
2022/03/19 12:17:20;;;;;;;4.25;0.95;;;9.50;95.00;;;;;;4973391;28;20093;-69
2022/03/19 12:20:01;;;;;;;4.07;1.17;;;9.60;95.30;;;;;;4973849;28;20023;-69
2022/03/19 12:22:42;;;;;;;6.38;1.60;;;9.60;95.50;;;;;;4974146;28;20043;-70
2022/03/19 12:25:14;;;;;;;3.10;1.00;;;9.60;95.70;;;;;;4973788;28;20019;-70
2022/03/19 12:27:58;;;;;;;7.25;1.52;;;9.60;95.40;;;;;;4974145;28;20027;-70
2022/03/19 12:30:25;;;;;;;8.70;1.25;;;9.60;95.90;;;;;;4954791;29;20114;-70
2022/03/19 12:32:56;;;;;;;7.60;1.40;;;9.70;95.90;;;;;;4954341;28;20180;-70
2022/03/19 12:35:36;;;;;;;8.50;1.83;;;9.70;96.10;;;;;;4954207;28;20031;-70
2022/03/19 12:38:02;;;;;;;5.20;1.10;;;9.70;96.40;;;;;;4954111;28;20051;-70
2022/03/19 12:41:23;;;;;;;7.10;1.35;;;9.70;96.50;;;;;;4964861;28;20093;-69
2022/03/19 12:43:17;;;;;;;4.35;1.45;;;9.70;96.40;;;;;;4972670;28;20077;-67
2022/03/19 12:45:50;;;;;;;8.88;1.50;;;9.60;96.60;;;;;;4973156;28;20022;-68
2022/03/19 12:48:21;;;;;;;6.88;1.48;;;9.60;96.80;;;;;;4960172;28;20034;-72
2022/03/19 12:50:51;;;;;;;5.88;1.48;;;9.60;96.90;;;;;;4972767;28;20434;-67
2022/03/19 12:53:35;;;;;;;5.15;1.65;;;9.70;96.90;;;;;;4972663;28;20107;-66
2022/03/19 12:56:19;;;;;;;7.10;1.35;;;9.70;96.80;;;;;;4972654;28;20033;-67
2022/03/19 12:58:48;;;;;;;7.25;1.60;;;9.80;99.90;;;;;;4970932;28;20038;-67
2022/03/19 13:01:18;;;;;;;7.72;1.88;;;10.60;97.70;;;;;;4971751;28;20014;-66
2022/03/19 13:03:44;;;;;;;6.85;1.52;;;10.40;95.40;;;;;;4970385;28;20019;-66
2022/03/19 13:06:11;;;;;;;6.95;1.33;;;10.20;95.30;;;;;;4972766;28;20051;-66
2022/03/19 13:08:47;;;;;;;5.43;1.30;;;10.10;95.60;;;;;;4973196;28;20031;-67
2022/03/19 13:11:14;;;;;;;6.97;1.63;;;10.00;96.10;;;;;;4972977;28;20489;-68
2022/03/19 13:13:41;;;;;;;8.75;1.35;;;9.90;96.10;;;;;;4973168;28;20113;-68
2022/03/19 13:16:07;;;;;;;6.45;1.70;;;9.90;96.70;;;;;;4968330;28;20039;-69
2022/03/19 13:18:37;;;;;;;8.95;1.33;;;10.00;96.30;;;;;;4953857;28;20027;-69
2022/03/19 13:21:09;;;;;;;8.05;2.22;;;10.10;99.90;;;;;;4953589;28;20529;-69
2022/03/19 13:23:37;;;;;;;8.05;1.92;;;10.60;97.30;;;;;;4953895;28;20035;-69
2022/03/19 13:26:04;;;;;;;7.43;1.80;;;10.50;95.40;;;;;;4960246;28;20501;-67
2022/03/19 13:28:30;;;;;;;10.13;1.90;;;10.30;95.60;;;;;;4954128;28;20032;-67
2022/03/19 13:30:57;;;;;;;8.10;1.65;;;10.20;97.10;;;;;;4953510;28;20483;-71
2022/03/19 13:33:23;;;;;;;6.07;1.75;;;10.10;96.70;;;;;;4969168;28;20482;-69
2022/03/19 13:35:51;;;;;;;10.77;1.90;;;10.10;96.40;;;;;;4972739;28;20035;-69
2022/03/19 13:38:19;;;;;;;9.88;2.17;;;10.00;96.70;;;;;;4964706;28;20098;-70
2022/03/19 13:40:50;;;;;;;9.43;2.42;;;9.90;96.80;;;;;;4990712;28;20112;-75
2022/03/19 13:43:17;;;;;;;12.30;2.42;;;9.80;97.20;;;;;;4974816;28;20022;-74
2022/03/19 13:45:43;;;;;;;7.90;1.88;;;9.80;97.50;;;;;;4970227;28;20063;-74
2022/03/19 13:48:09;;;;;;;9.02;1.63;;;9.80;97.80;;;;;;4972665;28;20074;-71
2022/03/19 13:50:38;;;;;;;15.07;2.25;;;9.80;98.20;;;;;;4972658;28;20332;-70
2022/03/19 13:53:05;;;;;;;12.40;2.03;;;9.70;98.20;;;;;;4974996;28;20073;-69
2022/03/19 13:55:41;;;;;;;10.85;2.72;;;9.70;98.50;;;;;;4976052;28;20549;-69
2022/03/19 13:58:11;;;;;;;13.00;2.28;;;9.70;98.50;;;;;;4976195;28;20031;-69
2022/03/19 14:00:42;;;;;;;6.28;1.73;;;9.70;98.80;;;;;;4965976;28;20521;-68
2022/03/19 14:03:16;;;;;;;14.77;2.60;;;9.60;98.90;;;;;;4956137;28;20036;-73
2022/03/19 14:05:48;;;;;;;10.00;1.95;;;9.70;99.20;;;;;;4954893;28;20024;-73
2022/03/19 14:08:19;;;;;;;10.23;2.17;;;9.70;99.10;;;;;;4956815;28;20035;-72
2022/03/19 14:10:53;;;;;;;14.70;2.75;;;9.70;99.10;;;;;;4956991;28;20031;-73
2022/03/19 14:13:32;;;;;;;10.90;2.85;;;9.70;99.20;;;;;;4956346;28;20039;-74
2022/03/19 14:16:05;;;;;;;10.57;2.35;;;9.70;99.40;;;;;;4973697;28;20049;-73
2022/03/19 14:18:32;;;;;;;8.82;1.80;;;9.70;99.20;;;;;;4975402;28;20029;-74
2022/03/19 14:21:00;;;;;;;11.25;2.53;;;9.70;99.10;;;;;;4975432;28;20031;-74
2022/03/19 14:23:26;;;;;;;14.48;2.30;;;9.70;98.90;;;;;;4975950;28;20529;-74